sensor_id;sensor_type;location;lat;lon;timestamp;P1;P2;P0
62547;PMS7003;48602;45.192;5.722;2022-10-16T00:00:37;8.25;8.25;7.00
62547;PMS7003;48602;45.192;5.722;2022-10-16T00:03:04;7.00;6.00;5.00
62547;PMS7003;48602;45.192;5.722;2022-10-16T00:05:30;7.50;7.50;6.00
62547;PMS7003;48602;45.192;5.722;2022-10-16T00:07:56;5.25;5.00;4.00
62547;PMS7003;48602;45.192;5.722;2022-10-16T00:10:21;9.50;8.50;7.50
62547;PMS7003;48602;45.192;5.722;2022-10-16T00:12:47;7.75;7.00;6.25
62547;PMS7003;48602;45.192;5.722;2022-10-16T00:15:13;8.25;7.50;7.00
62547;PMS7003;48602;45.192;5.722;2022-10-16T00:17:38;9.00;7.25;6.00
62547;PMS7003;48602;45.192;5.722;2022-10-16T00:20:04;7.50;6.50;5.75
62547;PMS7003;48602;45.192;5.722;2022-10-16T00:22:30;7.00;6.75;5.75
62547;PMS7003;48602;45.192;5.722;2022-10-16T00:24:55;11.00;7.50;6.00
62547;PMS7003;48602;45.192;5.722;2022-10-16T00:27:21;8.50;7.00;5.75
62547;PMS7003;48602;45.192;5.722;2022-10-16T00:29:49;7.50;6.00;5.00
62547;PMS7003;48602;45.192;5.722;2022-10-16T00:32:15;9.75;8.75;7.50
62547;PMS7003;48602;45.192;5.722;2022-10-16T00:34:41;8.25;7.00;6.00
62547;PMS7003;48602;45.192;5.722;2022-10-16T00:37:06;12.25;11.00;8.50
62547;PMS7003;48602;45.192;5.722;2022-10-16T00:39:32;9.25;9.00;8.00
62547;PMS7003;48602;45.192;5.722;2022-10-16T00:41:57;11.75;9.50;7.00
62547;PMS7003;48602;45.192;5.722;2022-10-16T00:45:23;10.25;9.25;6.50
62547;PMS7003;48602;45.192;5.722;2022-10-16T00:47:34;6.75;6.00;5.50
62547;PMS7003;48602;45.192;5.722;2022-10-16T00:50:07;5.40;5.40;4.40
62547;PMS7003;48602;45.192;5.722;2022-10-16T00:52:36;9.00;9.00;6.50
62547;PMS7003;48602;45.192;5.722;2022-10-16T00:55:06;8.25;5.75;5.00
62547;PMS7003;48602;45.192;5.722;2022-10-16T00:57:34;8.00;5.50;5.00
62547;PMS7003;48602;45.192;5.722;2022-10-16T01:00:00;9.00;7.00;6.50
62547;PMS7003;48602;45.192;5.722;2022-10-16T01:02:26;10.50;7.50;6.00
62547;PMS7003;48602;45.192;5.722;2022-10-16T01:04:52;8.00;6.25;5.75
62547;PMS7003;48602;45.192;5.722;2022-10-16T01:20:17;8.60;8.40;7.00
62547;PMS7003;48602;45.192;5.722;2022-10-16T01:31:24;9.40;6.80;5.80
62547;PMS7003;48602;45.192;5.722;2022-10-16T01:36:44;8.00;6.75;5.25
62547;PMS7003;48602;45.192;5.722;2022-10-16T01:39:13;9.25;9.00;8.00
62547;PMS7003;48602;45.192;5.722;2022-10-16T01:41:45;10.50;10.25;7.25
62547;PMS7003;48602;45.192;5.722;2022-10-16T01:44:21;13.25;12.50;10.25
62547;PMS7003;48602;45.192;5.722;2022-10-16T01:46:51;14.50;12.50;11.25
62547;PMS7003;48602;45.192;5.722;2022-10-16T01:49:20;11.75;10.50;8.50
62547;PMS7003;48602;45.192;5.722;2022-10-16T01:51:49;13.25;11.00;9.00
62547;PMS7003;48602;45.192;5.722;2022-10-16T01:54:19;10.75;10.50;8.50
62547;PMS7003;48602;45.192;5.722;2022-10-16T01:56:45;9.00;8.50;7.50
62547;PMS7003;48602;45.192;5.722;2022-10-16T01:59:15;11.25;9.50;8.00
62547;PMS7003;48602;45.192;5.722;2022-10-16T02:01:48;7.50;7.50;6.50
62547;PMS7003;48602;45.192;5.722;2022-10-16T02:07:02;10.75;9.25;7.75
62547;PMS7003;48602;45.192;5.722;2022-10-16T02:09:28;11.25;10.25;8.00
62547;PMS7003;48602;45.192;5.722;2022-10-16T02:11:56;8.25;8.25;6.75
62547;PMS7003;48602;45.192;5.722;2022-10-16T02:14:24;11.50;11.25;8.75
62547;PMS7003;48602;45.192;5.722;2022-10-16T02:16:51;8.50;8.50;6.75
62547;PMS7003;48602;45.192;5.722;2022-10-16T02:19:17;9.75;8.75;8.00
62547;PMS7003;48602;45.192;5.722;2022-10-16T02:21:56;11.40;10.20;8.80
62547;PMS7003;48602;45.192;5.722;2022-10-16T02:24:27;11.00;9.00;8.25
62547;PMS7003;48602;45.192;5.722;2022-10-16T02:27:05;9.50;8.50;6.75
62547;PMS7003;48602;45.192;5.722;2022-10-16T02:29:36;11.25;10.25;9.25
62547;PMS7003;48602;45.192;5.722;2022-10-16T02:32:09;10.00;10.00;8.50
62547;PMS7003;48602;45.192;5.722;2022-10-16T02:34:37;9.50;8.75;7.25
62547;PMS7003;48602;45.192;5.722;2022-10-16T02:37:05;8.50;8.50;6.75
62547;PMS7003;48602;45.192;5.722;2022-10-16T02:39:32;7.50;7.00;6.25
62547;PMS7003;48602;45.192;5.722;2022-10-16T02:41:58;9.75;8.00;7.00
62547;PMS7003;48602;45.192;5.722;2022-10-16T02:44:24;7.25;7.25;6.25
62547;PMS7003;48602;45.192;5.722;2022-10-16T02:46:49;9.75;8.50;6.25
62547;PMS7003;48602;45.192;5.722;2022-10-16T02:49:14;9.75;8.25;7.00
62547;PMS7003;48602;45.192;5.722;2022-10-16T02:51:40;8.50;7.00;6.00
62547;PMS7003;48602;45.192;5.722;2022-10-16T02:54:05;7.50;6.25;6.00
62547;PMS7003;48602;45.192;5.722;2022-10-16T02:56:31;10.25;8.00;7.00
62547;PMS7003;48602;45.192;5.722;2022-10-16T02:58:56;8.75;8.00;6.75
62547;PMS7003;48602;45.192;5.722;2022-10-16T03:01:22;11.00;11.00;9.00
62547;PMS7003;48602;45.192;5.722;2022-10-16T03:03:48;8.00;7.25;6.75
62547;PMS7003;48602;45.192;5.722;2022-10-16T03:06:14;9.00;9.00;7.25
62547;PMS7003;48602;45.192;5.722;2022-10-16T03:08:39;10.75;10.25;7.50
62547;PMS7003;48602;45.192;5.722;2022-10-16T03:11:05;9.00;7.50;5.75
62547;PMS7003;48602;45.192;5.722;2022-10-16T03:13:30;9.00;9.00;7.00
62547;PMS7003;48602;45.192;5.722;2022-10-16T03:15:56;7.00;7.00;6.25
62547;PMS7003;48602;45.192;5.722;2022-10-16T03:18:21;7.50;7.00;6.00
62547;PMS7003;48602;45.192;5.722;2022-10-16T03:20:46;9.75;9.75;7.75
62547;PMS7003;48602;45.192;5.722;2022-10-16T03:23:12;6.25;6.25;5.25
62547;PMS7003;48602;45.192;5.722;2022-10-16T03:25:37;8.25;7.00;5.75
62547;PMS7003;48602;45.192;5.722;2022-10-16T03:28:03;6.75;6.25;5.75
62547;PMS7003;48602;45.192;5.722;2022-10-16T03:30:28;6.50;6.50;5.50
62547;PMS7003;48602;45.192;5.722;2022-10-16T03:32:54;7.25;7.25;5.75
62547;PMS7003;48602;45.192;5.722;2022-10-16T03:35:19;7.25;7.25;6.00
62547;PMS7003;48602;45.192;5.722;2022-10-16T03:37:45;8.00;7.75;6.75
62547;PMS7003;48602;45.192;5.722;2022-10-16T03:40:11;6.00;6.00;5.00
62547;PMS7003;48602;45.192;5.722;2022-10-16T03:42:36;7.75;7.75;6.75
62547;PMS7003;48602;45.192;5.722;2022-10-16T03:45:02;7.25;7.25;5.50
62547;PMS7003;48602;45.192;5.722;2022-10-16T03:47:28;6.75;6.50;5.50
62547;PMS7003;48602;45.192;5.722;2022-10-16T03:49:53;8.25;5.50;5.00
62547;PMS7003;48602;45.192;5.722;2022-10-16T03:52:19;8.50;8.25;6.75
62547;PMS7003;48602;45.192;5.722;2022-10-16T03:54:44;7.25;6.25;5.50
62547;PMS7003;48602;45.192;5.722;2022-10-16T03:57:09;8.50;8.00;6.75
62547;PMS7003;48602;45.192;5.722;2022-10-16T03:59:35;6.00;5.50;4.50
62547;PMS7003;48602;45.192;5.722;2022-10-16T04:02:00;8.75;8.50;7.00
62547;PMS7003;48602;45.192;5.722;2022-10-16T04:04:25;7.50;6.75;5.50
62547;PMS7003;48602;45.192;5.722;2022-10-16T04:06:51;9.00;7.50;6.75
62547;PMS7003;48602;45.192;5.722;2022-10-16T04:09:16;10.50;8.25;5.75
62547;PMS7003;48602;45.192;5.722;2022-10-16T04:11:42;7.00;6.25;5.50
62547;PMS7003;48602;45.192;5.722;2022-10-16T04:14:07;7.00;7.00;6.25
62547;PMS7003;48602;45.192;5.722;2022-10-16T04:16:33;6.75;6.75;5.75
62547;PMS7003;48602;45.192;5.722;2022-10-16T04:18:58;6.00;5.25;4.75
62547;PMS7003;48602;45.192;5.722;2022-10-16T04:21:24;8.50;8.50;6.50
62547;PMS7003;48602;45.192;5.722;2022-10-16T04:23:49;4.25;4.25;3.00
62547;PMS7003;48602;45.192;5.722;2022-10-16T04:26:14;6.00;6.00;5.25
62547;PMS7003;48602;45.192;5.722;2022-10-16T04:28:40;5.75;5.75;5.50
62547;PMS7003;48602;45.192;5.722;2022-10-16T04:31:06;8.00;8.00;7.00
62547;PMS7003;48602;45.192;5.722;2022-10-16T04:33:32;7.75;7.75;7.00
62547;PMS7003;48602;45.192;5.722;2022-10-16T04:35:58;8.00;7.00;5.50
62547;PMS7003;48602;45.192;5.722;2022-10-16T04:38:24;12.50;10.75;8.50
62547;PMS7003;48602;45.192;5.722;2022-10-16T04:40:50;9.50;7.50;5.75
62547;PMS7003;48602;45.192;5.722;2022-10-16T04:43:16;9.25;8.75;6.50
62547;PMS7003;48602;45.192;5.722;2022-10-16T04:45:41;9.50;8.75;7.75
62547;PMS7003;48602;45.192;5.722;2022-10-16T04:48:06;10.00;9.00;9.00
62547;PMS7003;48602;45.192;5.722;2022-10-16T04:50:32;11.50;10.75;9.00
62547;PMS7003;48602;45.192;5.722;2022-10-16T04:52:57;9.00;8.75;7.50
62547;PMS7003;48602;45.192;5.722;2022-10-16T04:55:23;11.75;11.00;9.00
62547;PMS7003;48602;45.192;5.722;2022-10-16T04:57:48;10.25;9.25;8.25
62547;PMS7003;48602;45.192;5.722;2022-10-16T05:00:14;7.00;6.00;6.00
62547;PMS7003;48602;45.192;5.722;2022-10-16T05:02:40;7.25;6.75;6.00
62547;PMS7003;48602;45.192;5.722;2022-10-16T05:05:05;6.50;6.00;5.75
62547;PMS7003;48602;45.192;5.722;2022-10-16T05:07:31;6.50;6.50;5.75
62547;PMS7003;48602;45.192;5.722;2022-10-16T05:09:56;6.25;6.00;5.75
62547;PMS7003;48602;45.192;5.722;2022-10-16T05:12:21;5.75;4.75;4.25
62547;PMS7003;48602;45.192;5.722;2022-10-16T05:14:47;8.25;7.00;6.00
62547;PMS7003;48602;45.192;5.722;2022-10-16T05:17:12;8.25;7.25;5.25
62547;PMS7003;48602;45.192;5.722;2022-10-16T05:19:37;8.00;7.50;6.50
62547;PMS7003;48602;45.192;5.722;2022-10-16T05:22:03;8.00;7.75;7.00
62547;PMS7003;48602;45.192;5.722;2022-10-16T05:24:28;8.75;7.75;6.25
62547;PMS7003;48602;45.192;5.722;2022-10-16T05:26:53;8.50;8.25;7.00
62547;PMS7003;48602;45.192;5.722;2022-10-16T05:29:19;10.00;10.00;9.00
62547;PMS7003;48602;45.192;5.722;2022-10-16T05:31:44;10.50;9.50;7.75
62547;PMS7003;48602;45.192;5.722;2022-10-16T05:34:10;11.50;10.75;10.00
62547;PMS7003;48602;45.192;5.722;2022-10-16T05:36:35;4.75;4.75;4.00
62547;PMS7003;48602;45.192;5.722;2022-10-16T05:39:01;7.00;7.00;6.75
62547;PMS7003;48602;45.192;5.722;2022-10-16T05:41:26;6.50;6.50;5.00
62547;PMS7003;48602;45.192;5.722;2022-10-16T05:43:52;5.75;5.25;4.75
62547;PMS7003;48602;45.192;5.722;2022-10-16T05:46:18;8.75;7.50;5.00
62547;PMS7003;48602;45.192;5.722;2022-10-16T05:48:44;9.50;8.00;6.50
62547;PMS7003;48602;45.192;5.722;2022-10-16T05:51:10;31.67;30.00;22.00
62547;PMS7003;48602;45.192;5.722;2022-10-16T05:53:37;38.00;34.00;24.00
62547;PMS7003;48602;45.192;5.722;2022-10-16T05:56:04;41.33;35.67;26.33
62547;PMS7003;48602;45.192;5.722;2022-10-16T05:58:32;40.67;36.00;27.00
62547;PMS7003;48602;45.192;5.722;2022-10-16T06:01:04;41.67;33.00;23.67
62547;PMS7003;48602;45.192;5.722;2022-10-16T06:03:32;34.67;31.00;23.00
62547;PMS7003;48602;45.192;5.722;2022-10-16T06:05:57;27.33;26.67;20.00
62547;PMS7003;48602;45.192;5.722;2022-10-16T06:08:23;24.00;21.00;18.33
62547;PMS7003;48602;45.192;5.722;2022-10-16T06:10:49;15.25;15.25;13.75
62547;PMS7003;48602;45.192;5.722;2022-10-16T06:13:25;19.00;14.75;11.25
62547;PMS7003;48602;45.192;5.722;2022-10-16T06:15:50;19.00;18.00;14.50
62547;PMS7003;48602;45.192;5.722;2022-10-16T06:18:16;21.75;20.00;15.50
62547;PMS7003;48602;45.192;5.722;2022-10-16T06:20:41;13.25;11.75;10.25
62547;PMS7003;48602;45.192;5.722;2022-10-16T06:23:07;16.00;16.00;13.00
62547;PMS7003;48602;45.192;5.722;2022-10-16T06:25:32;19.25;18.25;14.50
62547;PMS7003;48602;45.192;5.722;2022-10-16T06:27:58;16.75;16.00;13.25
62547;PMS7003;48602;45.192;5.722;2022-10-16T06:30:23;16.00;16.00;12.50
62547;PMS7003;48602;45.192;5.722;2022-10-16T06:32:48;15.75;13.25;11.25
62547;PMS7003;48602;45.192;5.722;2022-10-16T06:35:14;13.50;12.25;11.00
62547;PMS7003;48602;45.192;5.722;2022-10-16T06:37:39;14.50;12.25;10.50
62547;PMS7003;48602;45.192;5.722;2022-10-16T06:40:05;13.75;13.00;11.00
62547;PMS7003;48602;45.192;5.722;2022-10-16T06:42:31;16.25;12.25;10.50
62547;PMS7003;48602;45.192;5.722;2022-10-16T06:44:56;13.75;12.75;10.50
62547;PMS7003;48602;45.192;5.722;2022-10-16T06:47:22;16.75;16.00;13.50
62547;PMS7003;48602;45.192;5.722;2022-10-16T06:49:47;17.75;15.50;13.25
62547;PMS7003;48602;45.192;5.722;2022-10-16T06:52:12;12.50;10.00;9.00
62547;PMS7003;48602;45.192;5.722;2022-10-16T06:54:38;10.75;9.00;7.75
62547;PMS7003;48602;45.192;5.722;2022-10-16T06:57:03;9.00;7.00;6.50
62547;PMS7003;48602;45.192;5.722;2022-10-16T06:59:28;7.25;6.50;5.25
62547;PMS7003;48602;45.192;5.722;2022-10-16T07:01:54;8.50;8.50;7.25
62547;PMS7003;48602;45.192;5.722;2022-10-16T07:04:19;6.25;6.25;4.75
62547;PMS7003;48602;45.192;5.722;2022-10-16T07:06:44;7.25;6.50;6.00
62547;PMS7003;48602;45.192;5.722;2022-10-16T07:09:10;6.75;6.75;5.50
62547;PMS7003;48602;45.192;5.722;2022-10-16T07:11:36;9.00;8.00;6.50
62547;PMS7003;48602;45.192;5.722;2022-10-16T07:14:03;6.60;6.60;5.60
62547;PMS7003;48602;45.192;5.722;2022-10-16T07:16:30;8.25;7.00;6.25
62547;PMS7003;48602;45.192;5.722;2022-10-16T07:18:57;8.75;6.75;6.00
62547;PMS7003;48602;45.192;5.722;2022-10-16T07:21:25;9.00;6.50;5.00
62547;PMS7003;48602;45.192;5.722;2022-10-16T07:23:54;8.75;8.00;6.75
62547;PMS7003;48602;45.192;5.722;2022-10-16T07:26:21;6.75;6.75;6.50
62547;PMS7003;48602;45.192;5.722;2022-10-16T07:28:47;7.00;6.50;6.00
62547;PMS7003;48602;45.192;5.722;2022-10-16T07:31:13;7.00;5.50;4.75
62547;PMS7003;48602;45.192;5.722;2022-10-16T07:33:40;9.20;6.80;5.20
62547;PMS7003;48602;45.192;5.722;2022-10-16T07:36:08;3.50;2.25;2.25
62547;PMS7003;48602;45.192;5.722;2022-10-16T07:38:34;5.50;5.50;5.50
62547;PMS7003;48602;45.192;5.722;2022-10-16T07:41:00;5.75;4.50;4.25
62547;PMS7003;48602;45.192;5.722;2022-10-16T07:43:28;7.40;5.80;5.00
62547;PMS7003;48602;45.192;5.722;2022-10-16T07:45:54;4.50;4.50;3.75
62547;PMS7003;48602;45.192;5.722;2022-10-16T07:48:20;6.50;4.50;4.50
62547;PMS7003;48602;45.192;5.722;2022-10-16T07:50:46;8.00;6.00;4.50
62547;PMS7003;48602;45.192;5.722;2022-10-16T07:53:12;7.00;5.50;5.50
62547;PMS7003;48602;45.192;5.722;2022-10-16T07:55:38;5.50;5.50;4.50
62547;PMS7003;48602;45.192;5.722;2022-10-16T07:58:04;5.75;5.75;4.75
62547;PMS7003;48602;45.192;5.722;2022-10-16T08:00:30;7.25;5.75;4.75
62547;PMS7003;48602;45.192;5.722;2022-10-16T08:02:56;5.00;5.00;4.50
62547;PMS7003;48602;45.192;5.722;2022-10-16T08:05:25;6.25;6.00;4.75
62547;PMS7003;48602;45.192;5.722;2022-10-16T08:07:52;4.50;4.50;4.00
62547;PMS7003;48602;45.192;5.722;2022-10-16T08:10:18;3.75;3.75;3.75
62547;PMS7003;48602;45.192;5.722;2022-10-16T08:12:44;4.00;3.00;2.40
62547;PMS7003;48602;45.192;5.722;2022-10-16T08:15:10;3.75;3.75;3.75
62547;PMS7003;48602;45.192;5.722;2022-10-16T08:17:35;4.50;4.50;4.00
62547;PMS7003;48602;45.192;5.722;2022-10-16T08:20:01;3.75;3.75;3.00
62547;PMS7003;48602;45.192;5.722;2022-10-16T08:22:27;5.80;4.00;3.60
62547;PMS7003;48602;45.192;5.722;2022-10-16T08:24:53;6.00;6.00;5.00
62547;PMS7003;48602;45.192;5.722;2022-10-16T08:27:18;8.25;6.50;6.00
62547;PMS7003;48602;45.192;5.722;2022-10-16T08:29:43;8.75;6.25;5.75
62547;PMS7003;48602;45.192;5.722;2022-10-16T08:32:09;6.25;6.25;5.00
62547;PMS7003;48602;45.192;5.722;2022-10-16T08:34:34;5.25;5.25;5.00
62547;PMS7003;48602;45.192;5.722;2022-10-16T08:36:59;8.50;6.75;6.25
62547;PMS7003;48602;45.192;5.722;2022-10-16T08:39:25;7.75;7.00;6.25
62547;PMS7003;48602;45.192;5.722;2022-10-16T08:49:43;6.00;6.00;5.00
62547;PMS7003;48602;45.192;5.722;2022-10-16T08:52:29;5.40;5.40;4.40
62547;PMS7003;48602;45.192;5.722;2022-10-16T08:54:57;4.40;3.40;3.20
62547;PMS7003;48602;45.192;5.722;2022-10-16T08:57:24;5.00;5.00;4.25
62547;PMS7003;48602;45.192;5.722;2022-10-16T08:59:51;8.20;6.40;5.00
62547;PMS7003;48602;45.192;5.722;2022-10-16T09:02:28;3.20;3.20;3.00
62547;PMS7003;48602;45.192;5.722;2022-10-16T09:05:02;3.60;3.60;3.40
62547;PMS7003;48602;45.192;5.722;2022-10-16T09:10:41;4.60;3.60;3.00
62547;PMS7003;48602;45.192;5.722;2022-10-16T09:16:30;4.80;4.00;3.20
62547;PMS7003;48602;45.192;5.722;2022-10-16T09:19:20;4.00;4.00;3.75
62547;PMS7003;48602;45.192;5.722;2022-10-16T09:21:53;4.20;4.20;4.00
62547;PMS7003;48602;45.192;5.722;2022-10-16T09:24:21;3.00;3.00;2.00
62547;PMS7003;48602;45.192;5.722;2022-10-16T09:26:49;5.20;4.40;4.00
62547;PMS7003;48602;45.192;5.722;2022-10-16T09:29:15;5.50;3.25;3.00
62547;PMS7003;48602;45.192;5.722;2022-10-16T09:31:44;2.40;1.00;0.80
62547;PMS7003;48602;45.192;5.722;2022-10-16T09:34:53;5.25;4.00;4.00
62547;PMS7003;48602;45.192;5.722;2022-10-16T09:37:01;7.20;3.40;3.20
62547;PMS7003;48602;45.192;5.722;2022-10-16T09:39:29;4.80;3.40;3.40
62547;PMS7003;48602;45.192;5.722;2022-10-16T09:41:55;3.00;3.00;2.50
62547;PMS7003;48602;45.192;5.722;2022-10-16T09:46:46;4.00;4.00;4.00
62547;PMS7003;48602;45.192;5.722;2022-10-16T09:49:25;3.75;3.75;3.25
62547;PMS7003;48602;45.192;5.722;2022-10-16T09:51:51;6.80;4.00;4.00
62547;PMS7003;48602;45.192;5.722;2022-10-16T09:54:35;3.20;3.00;3.00
62547;PMS7003;48602;45.192;5.722;2022-10-16T09:57:05;3.50;3.50;3.00
62547;PMS7003;48602;45.192;5.722;2022-10-16T09:59:32;3.80;3.80;3.80
62547;PMS7003;48602;45.192;5.722;2022-10-16T10:02:00;4.00;2.00;2.00
62547;PMS7003;48602;45.192;5.722;2022-10-16T10:04:36;4.40;4.20;4.00
62547;PMS7003;48602;45.192;5.722;2022-10-16T10:07:05;4.40;3.60;3.00
62547;PMS7003;48602;45.192;5.722;2022-10-16T10:09:43;5.00;3.40;3.00
62547;PMS7003;48602;45.192;5.722;2022-10-16T10:12:29;3.60;3.60;3.00
62547;PMS7003;48602;45.192;5.722;2022-10-16T10:15:05;2.80;2.80;2.80
62547;PMS7003;48602;45.192;5.722;2022-10-16T10:17:44;6.20;5.20;4.60
62547;PMS7003;48602;45.192;5.722;2022-10-16T10:23:25;5.20;3.60;3.40
62547;PMS7003;48602;45.192;5.722;2022-10-16T10:33:44;1.00;1.00;1.00
62547;PMS7003;48602;45.192;5.722;2022-10-16T10:36:23;3.60;3.60;3.40
62547;PMS7003;48602;45.192;5.722;2022-10-16T10:46:39;3.80;2.80;2.40
62547;PMS7003;48602;45.192;5.722;2022-10-16T10:59:42;4.20;4.00;3.00
62547;PMS7003;48602;45.192;5.722;2022-10-16T11:05:18;4.20;4.00;4.00
62547;PMS7003;48602;45.192;5.722;2022-10-16T11:08:31;4.00;4.00;3.00
62547;PMS7003;48602;45.192;5.722;2022-10-16T11:10:52;3.60;3.00;2.40
62547;PMS7003;48602;45.192;5.722;2022-10-16T11:15:47;2.80;2.80;2.20
62547;PMS7003;48602;45.192;5.722;2022-10-16T11:21:19;2.40;2.40;2.00
62547;PMS7003;48602;45.192;5.722;2022-10-16T11:23:56;4.80;4.20;4.00
62547;PMS7003;48602;45.192;5.722;2022-10-16T11:26:29;3.80;3.00;2.80
62547;PMS7003;48602;45.192;5.722;2022-10-16T11:28:58;4.40;3.00;3.00
62547;PMS7003;48602;45.192;5.722;2022-10-16T11:36:33;4.00;3.00;2.75
62547;PMS7003;48602;45.192;5.722;2022-10-16T11:39:20;3.20;2.80;2.40
62547;PMS7003;48602;45.192;5.722;2022-10-16T11:41:50;4.00;2.60;2.40
62547;PMS7003;48602;45.192;5.722;2022-10-16T11:49:43;3.40;3.40;2.80
62547;PMS7003;48602;45.192;5.722;2022-10-16T11:52:15;5.40;3.40;2.40
62547;PMS7003;48602;45.192;5.722;2022-10-16T11:57:39;5.40;4.00;3.40
62547;PMS7003;48602;45.192;5.722;2022-10-16T12:00:15;5.60;3.60;3.60
62547;PMS7003;48602;45.192;5.722;2022-10-16T12:05:52;4.40;4.40;4.20
62547;PMS7003;48602;45.192;5.722;2022-10-16T12:08:35;9.80;3.40;3.00
62547;PMS7003;48602;45.192;5.722;2022-10-16T12:11:08;3.20;3.00;3.00
62547;PMS7003;48602;45.192;5.722;2022-10-16T12:14:05;4.80;3.60;3.00
62547;PMS7003;48602;45.192;5.722;2022-10-16T12:19:24;3.80;2.40;2.00
62547;PMS7003;48602;45.192;5.722;2022-10-16T12:21:51;3.20;3.00;2.80
62547;PMS7003;48602;45.192;5.722;2022-10-16T12:24:21;2.80;1.80;1.80
62547;PMS7003;48602;45.192;5.722;2022-10-16T12:27:04;4.80;2.80;2.80
62547;PMS7003;48602;45.192;5.722;2022-10-16T12:32:00;4.60;2.80;2.80
62547;PMS7003;48602;45.192;5.722;2022-10-16T12:36:54;2.80;0.80;0.80
62547;PMS7003;48602;45.192;5.722;2022-10-16T12:39:32;2.00;2.00;2.00
62547;PMS7003;48602;45.192;5.722;2022-10-16T12:42:01;4.50;4.50;4.00
62547;PMS7003;48602;45.192;5.722;2022-10-16T12:44:31;3.00;3.00;2.80
62547;PMS7003;48602;45.192;5.722;2022-10-16T12:46:58;0.00;0.00;0.00
62547;PMS7003;48602;45.192;5.722;2022-10-16T12:52:03;3.60;1.80;1.80
62547;PMS7003;48602;45.192;5.722;2022-10-16T13:04:55;7.00;5.00;4.40
62547;PMS7003;48602;45.192;5.722;2022-10-16T13:07:53;3.60;3.60;3.20
62547;PMS7003;48602;45.192;5.722;2022-10-16T13:29:20;2.80;2.60;1.80
62547;PMS7003;48602;45.192;5.722;2022-10-16T13:31:46;2.40;2.40;2.00
62547;PMS7003;48602;45.192;5.722;2022-10-16T13:34:14;2.80;2.60;2.20
62547;PMS7003;48602;45.192;5.722;2022-10-16T13:36:47;2.80;1.00;1.00
62547;PMS7003;48602;45.192;5.722;2022-10-16T13:44:41;1.80;1.80;1.60
62547;PMS7003;48602;45.192;5.722;2022-10-16T13:47:16;1.60;1.60;1.20
62547;PMS7003;48602;45.192;5.722;2022-10-16T13:49:44;1.20;1.00;1.00
62547;PMS7003;48602;45.192;5.722;2022-10-16T13:52:19;2.75;2.75;2.25
62547;PMS7003;48602;45.192;5.722;2022-10-16T13:54:46;4.20;2.80;1.80
62547;PMS7003;48602;45.192;5.722;2022-10-16T13:57:13;5.20;4.80;4.40
62547;PMS7003;48602;45.192;5.722;2022-10-16T13:59:42;2.80;2.80;2.40
62547;PMS7003;48602;45.192;5.722;2022-10-16T14:02:50;3.00;3.00;2.75
62547;PMS7003;48602;45.192;5.722;2022-10-16T14:05:02;2.80;2.80;1.80
62547;PMS7003;48602;45.192;5.722;2022-10-16T14:07:33;4.00;2.20;2.00
62547;PMS7003;48602;45.192;5.722;2022-10-16T14:10:06;2.00;2.00;1.60
62547;PMS7003;48602;45.192;5.722;2022-10-16T14:12:45;2.40;1.80;1.80
62547;PMS7003;48602;45.192;5.722;2022-10-16T14:15:18;1.20;0.80;0.80
62547;PMS7003;48602;45.192;5.722;2022-10-16T14:17:45;1.80;1.80;1.80
62547;PMS7003;48602;45.192;5.722;2022-10-16T14:20:15;2.00;2.00;1.80
62547;PMS7003;48602;45.192;5.722;2022-10-16T14:22:41;0.80;0.80;0.80
62547;PMS7003;48602;45.192;5.722;2022-10-16T14:27:55;3.00;0.80;0.80
62547;PMS7003;48602;45.192;5.722;2022-10-16T14:30:34;0.80;0.80;0.80
62547;PMS7003;48602;45.192;5.722;2022-10-16T14:33:02;1.00;0.80;0.80
62547;PMS7003;48602;45.192;5.722;2022-10-16T14:35:36;1.80;1.60;1.40
62547;PMS7003;48602;45.192;5.722;2022-10-16T14:38:04;1.60;1.60;1.00
62547;PMS7003;48602;45.192;5.722;2022-10-16T14:40:32;1.40;1.40;0.80
62547;PMS7003;48602;45.192;5.722;2022-10-16T14:43:00;1.80;1.80;1.60
62547;PMS7003;48602;45.192;5.722;2022-10-16T14:45:29;1.00;1.00;0.80
62547;PMS7003;48602;45.192;5.722;2022-10-16T14:47:58;1.00;1.00;0.80
62547;PMS7003;48602;45.192;5.722;2022-10-16T14:50:26;1.00;1.00;1.00
62547;PMS7003;48602;45.192;5.722;2022-10-16T14:52:52;2.00;2.00;2.00
62547;PMS7003;48602;45.192;5.722;2022-10-16T14:55:18;1.50;1.50;1.00
62547;PMS7003;48602;45.192;5.722;2022-10-16T14:57:44;2.50;2.50;2.00
62547;PMS7003;48602;45.192;5.722;2022-10-16T15:00:15;3.60;1.00;1.00
62547;PMS7003;48602;45.192;5.722;2022-10-16T15:02:43;1.00;1.00;0.80
62547;PMS7003;48602;45.192;5.722;2022-10-16T15:07:39;4.00;4.00;3.80
62547;PMS7003;48602;45.192;5.722;2022-10-16T15:10:05;2.00;2.00;2.00
62547;PMS7003;48602;45.192;5.722;2022-10-16T15:12:30;1.75;1.75;1.00
62547;PMS7003;48602;45.192;5.722;2022-10-16T15:14:55;2.25;2.25;2.25
62547;PMS7003;48602;45.192;5.722;2022-10-16T15:17:21;3.00;3.00;2.50
62547;PMS7003;48602;45.192;5.722;2022-10-16T15:19:46;1.00;1.00;1.00
62547;PMS7003;48602;45.192;5.722;2022-10-16T15:22:12;2.00;2.00;2.00
62547;PMS7003;48602;45.192;5.722;2022-10-16T15:24:37;2.00;2.00;2.00
62547;PMS7003;48602;45.192;5.722;2022-10-16T15:27:02;1.75;1.75;1.50
62547;PMS7003;48602;45.192;5.722;2022-10-16T15:29:28;1.75;1.00;1.00
62547;PMS7003;48602;45.192;5.722;2022-10-16T15:31:53;3.00;3.00;3.00
62547;PMS7003;48602;45.192;5.722;2022-10-16T15:34:19;1.00;1.00;1.00
62547;PMS7003;48602;45.192;5.722;2022-10-16T15:36:44;1.75;1.75;1.75
62547;PMS7003;48602;45.192;5.722;2022-10-16T15:39:14;3.75;3.75;3.00
62547;PMS7003;48602;45.192;5.722;2022-10-16T15:41:42;1.80;1.80;1.60
62547;PMS7003;48602;45.192;5.722;2022-10-16T15:44:08;1.20;1.20;1.00
62547;PMS7003;48602;45.192;5.722;2022-10-16T15:46:33;2.00;2.00;2.00
62547;PMS7003;48602;45.192;5.722;2022-10-16T15:48:59;3.00;3.00;2.50
62547;PMS7003;48602;45.192;5.722;2022-10-16T15:51:26;3.60;2.80;2.80
62547;PMS7003;48602;45.192;5.722;2022-10-16T15:53:57;1.20;1.20;0.80
62547;PMS7003;48602;45.192;5.722;2022-10-16T15:56:23;2.00;2.00;1.40
62547;PMS7003;48602;45.192;5.722;2022-10-16T15:58:51;2.00;2.00;1.40
62547;PMS7003;48602;45.192;5.722;2022-10-16T16:01:16;1.60;1.60;1.20
62547;PMS7003;48602;45.192;5.722;2022-10-16T16:03:42;3.00;3.00;2.00
62547;PMS7003;48602;45.192;5.722;2022-10-16T16:06:11;2.00;2.00;1.40
62547;PMS7003;48602;45.192;5.722;2022-10-16T16:08:37;3.20;3.20;3.00
62547;PMS7003;48602;45.192;5.722;2022-10-16T16:11:04;2.00;2.00;2.00
62547;PMS7003;48602;45.192;5.722;2022-10-16T16:13:40;3.80;3.80;3.80
62547;PMS7003;48602;45.192;5.722;2022-10-16T16:16:06;3.80;3.00;3.00
62547;PMS7003;48602;45.192;5.722;2022-10-16T16:18:36;3.00;2.80;2.80
62547;PMS7003;48602;45.192;5.722;2022-10-16T16:21:02;3.20;2.80;2.80
62547;PMS7003;48602;45.192;5.722;2022-10-16T16:23:29;1.00;0.40;0.00
62547;PMS7003;48602;45.192;5.722;2022-10-16T16:26:05;3.50;3.00;3.00
62547;PMS7003;48602;45.192;5.722;2022-10-16T16:28:34;2.00;1.80;1.60
62547;PMS7003;48602;45.192;5.722;2022-10-16T16:31:00;2.00;2.00;2.00
62547;PMS7003;48602;45.192;5.722;2022-10-16T16:33:26;4.00;2.75;2.25
62547;PMS7003;48602;45.192;5.722;2022-10-16T16:35:55;2.00;2.00;1.00
62547;PMS7003;48602;45.192;5.722;2022-10-16T16:38:22;3.20;3.20;2.80
62547;PMS7003;48602;45.192;5.722;2022-10-16T16:40:47;2.00;2.00;2.00
62547;PMS7003;48602;45.192;5.722;2022-10-16T16:43:13;2.75;2.75;2.25
62547;PMS7003;48602;45.192;5.722;2022-10-16T16:45:38;5.75;3.00;2.50
62547;PMS7003;48602;45.192;5.722;2022-10-16T16:48:04;2.75;2.25;2.25
62547;PMS7003;48602;45.192;5.722;2022-10-16T16:50:34;4.20;3.00;2.20
62547;PMS7003;48602;45.192;5.722;2022-10-16T16:53:00;1.80;1.80;1.80